createdAt,value
2023-01-18T00:00:37.969Z,1.51
2023-01-18T00:03:05.123Z,1.51
2023-01-18T00:05:31.586Z,1.53
2023-01-18T00:07:57.990Z,1.54
2023-01-18T00:10:24.472Z,1.54
2023-01-18T00:12:50.924Z,1.53
2023-01-18T00:15:17.718Z,1.50
2023-01-18T00:17:53.004Z,1.49
2023-01-18T00:20:25.847Z,1.48
2023-01-18T00:22:52.692Z,1.49
2023-01-18T00:25:21.932Z,1.49
2023-01-18T00:27:50.509Z,1.51
2023-01-18T00:30:18.645Z,1.51
2023-01-18T00:32:45.310Z,1.51
2023-01-18T00:35:12.971Z,1.48
2023-01-18T00:37:39.808Z,1.44
2023-01-18T00:40:07.369Z,1.41
2023-01-18T00:42:52.653Z,1.40
2023-01-18T00:45:19.318Z,1.38
2023-01-18T00:47:45.806Z,1.39
2023-01-18T00:50:12.164Z,1.40
2023-01-18T00:52:38.598Z,1.41
2023-01-18T00:55:05.718Z,1.43
2023-01-18T00:57:32.147Z,1.44
2023-01-18T00:59:58.567Z,1.45
2023-01-18T01:02:24.964Z,1.47
2023-01-18T01:05:10.179Z,1.48
2023-01-18T01:07:36.596Z,1.48
2023-01-18T01:10:09.096Z,1.46
2023-01-18T01:12:57.348Z,1.47
2023-01-18T01:15:42.413Z,1.49
2023-01-18T01:18:29.106Z,1.48
2023-01-18T01:21:14.314Z,1.49
2023-01-18T01:23:59.658Z,1.47
2023-01-18T01:26:26.160Z,1.46
2023-01-18T01:28:53.245Z,1.44
2023-01-18T01:31:20.388Z,1.44
2023-01-18T01:33:50.506Z,1.44
2023-01-18T01:36:25.860Z,1.47
2023-01-18T01:38:53.412Z,1.47
2023-01-18T01:41:27.814Z,1.46
2023-01-18T01:43:56.891Z,1.45
2023-01-18T01:46:46.924Z,1.42
2023-01-18T01:49:21.209Z,1.39
2023-01-18T01:51:52.606Z,1.36
2023-01-18T01:54:26.565Z,1.33
2023-01-18T01:56:58.317Z,1.33
2023-01-18T01:59:24.937Z,1.31
2023-01-18T02:01:51.506Z,1.29
2023-01-18T02:04:18.606Z,1.27
2023-01-18T02:06:44.988Z,1.26
2023-01-18T02:09:14.613Z,1.26
2023-01-18T02:11:43.111Z,1.23
2023-01-18T02:14:15.620Z,1.23
2023-01-18T02:17:00.260Z,1.24
2023-01-18T02:19:56.756Z,1.24
2023-01-18T02:22:47.587Z,1.26
2023-01-18T02:25:20.059Z,1.23
2023-01-18T02:27:54.338Z,1.23
2023-01-18T02:30:21.775Z,1.22
2023-01-18T02:33:01.499Z,1.20
2023-01-18T02:35:52.300Z,1.19
2023-01-18T02:38:31.377Z,1.17
2023-01-18T02:41:07.741Z,1.15
2023-01-18T02:43:54.703Z,1.14
2023-01-18T02:46:40.707Z,1.13
2023-01-18T02:49:09.801Z,1.12
2023-01-18T02:51:36.920Z,1.12
2023-01-18T02:54:08.304Z,1.13
2023-01-18T02:56:40.361Z,1.10
2023-01-18T02:59:21.271Z,1.11
2023-01-18T03:01:52.686Z,1.11
2023-01-18T03:04:28.837Z,1.11
2023-01-18T03:07:21.314Z,1.09
2023-01-18T03:09:48.162Z,1.06
2023-01-18T03:12:45.885Z,1.05
2023-01-18T03:15:38.946Z,1.02
2023-01-18T03:18:12.844Z,0.99
2023-01-18T03:20:46.599Z,0.98
2023-01-18T03:23:40.695Z,0.96
2023-01-18T03:26:10.431Z,0.92
2023-01-18T03:28:58.349Z,0.90
2023-01-18T03:32:00.035Z,0.87
2023-01-18T03:34:33.524Z,0.86
2023-01-18T03:37:04.682Z,0.82
2023-01-18T03:39:39.012Z,0.83
2023-01-18T03:42:20.266Z,0.81
2023-01-18T03:44:52.639Z,0.79
2023-01-18T03:47:19.524Z,0.76
2023-01-18T03:49:46.358Z,0.74
2023-01-18T03:52:31.318Z,0.76
2023-01-18T03:55:09.439Z,0.77
2023-01-18T03:57:46.964Z,0.78
2023-01-18T04:00:15.001Z,0.79
2023-01-18T04:02:44.155Z,0.84
2023-01-18T04:05:11.141Z,0.86
2023-01-18T04:07:37.608Z,0.85
2023-01-18T04:10:04.228Z,0.86
2023-01-18T04:12:31.463Z,0.89
2023-01-18T04:14:58.090Z,0.90
2023-01-18T04:17:24.565Z,0.92
2023-01-18T04:19:51.082Z,0.92
2023-01-18T04:22:17.463Z,0.91
2023-01-18T04:24:44.028Z,0.88
2023-01-18T04:27:11.044Z,0.87
2023-01-18T04:29:38.092Z,0.82
2023-01-18T04:32:05.543Z,0.82
2023-01-18T04:34:32.923Z,0.80
2023-01-18T04:36:59.399Z,0.81
2023-01-18T04:39:25.890Z,0.80
2023-01-18T04:41:52.318Z,0.79
2023-01-18T04:44:18.728Z,0.73
2023-01-18T04:46:45.199Z,0.70
2023-01-18T04:49:15.352Z,0.73
2023-01-18T04:51:43.368Z,0.75
2023-01-18T04:54:10.878Z,0.76
2023-01-18T04:56:37.436Z,0.80
2023-01-18T04:59:03.955Z,0.80
2023-01-18T05:01:30.498Z,0.81
2023-01-18T05:03:56.951Z,0.81
2023-01-18T05:06:24.510Z,0.80
2023-01-18T05:08:52.389Z,0.80
2023-01-18T05:11:20.990Z,0.79
2023-01-18T05:13:47.426Z,0.81
2023-01-18T05:16:17.091Z,0.80
2023-01-18T05:18:44.880Z,0.79
2023-01-18T05:21:11.938Z,0.78
2023-01-18T05:23:41.392Z,0.73
2023-01-18T05:26:20.720Z,0.71
2023-01-18T05:28:47.244Z,0.71
2023-01-18T05:31:15.292Z,0.71
2023-01-18T05:33:41.969Z,0.73
2023-01-18T05:36:08.732Z,0.74
2023-01-18T05:38:35.167Z,0.74
2023-01-18T05:41:02.082Z,0.68
2023-01-18T05:43:29.367Z,0.70
2023-01-18T05:45:56.415Z,0.71
2023-01-18T05:48:23.197Z,0.73
2023-01-18T05:50:49.765Z,0.75
2023-01-18T05:53:18.754Z,0.76
2023-01-18T05:55:54.343Z,0.78
2023-01-18T05:58:20.783Z,0.80
2023-01-18T06:00:47.246Z,0.82
2023-01-18T06:03:13.818Z,0.84
2023-01-18T06:05:40.214Z,0.85
2023-01-18T06:08:06.619Z,0.88
2023-01-18T06:10:33.064Z,0.90
2023-01-18T06:12:59.851Z,0.90
2023-01-18T06:15:26.518Z,0.90
2023-01-18T06:17:52.953Z,0.89
2023-01-18T06:20:19.379Z,0.89
2023-01-18T06:22:46.559Z,0.86
2023-01-18T06:25:12.989Z,0.90
2023-01-18T06:27:39.469Z,0.87
2023-01-18T06:30:07.328Z,0.92
2023-01-18T06:32:34.180Z,0.93
2023-01-18T06:35:00.796Z,0.92
2023-01-18T06:37:27.211Z,0.92
2023-01-18T06:39:53.667Z,0.91
2023-01-18T06:42:20.089Z,0.92
2023-01-18T06:44:46.480Z,0.92
2023-01-18T06:47:15.420Z,0.93
2023-01-18T06:49:41.830Z,0.96
2023-01-18T06:52:08.524Z,1.01
2023-01-18T06:54:35.843Z,1.00
2023-01-18T06:57:02.265Z,1.02
2023-01-18T06:59:28.654Z,1.03
2023-01-18T07:01:55.245Z,1.04
2023-01-18T07:04:21.732Z,1.04
2023-01-18T07:06:48.139Z,1.06
2023-01-18T07:09:14.590Z,1.06
2023-01-18T07:11:44.014Z,1.06
2023-01-18T07:14:11.397Z,1.06
2023-01-18T07:16:38.232Z,1.11
2023-01-18T07:19:05.154Z,1.12
2023-01-18T07:21:32.184Z,1.12
2023-01-18T07:23:59.380Z,1.07
2023-01-18T07:26:26.411Z,1.08
2023-01-18T07:28:54.641Z,1.07
2023-01-18T07:31:23.679Z,1.05
2023-01-18T07:33:50.233Z,1.05
2023-01-18T07:36:16.910Z,1.07
2023-01-18T07:38:43.952Z,1.10
2023-01-18T07:41:14.226Z,1.13
2023-01-18T07:43:41.983Z,1.14
2023-01-18T07:46:12.179Z,1.15
2023-01-18T07:48:39.119Z,1.18
2023-01-18T07:51:08.311Z,1.18
2023-01-18T07:53:36.243Z,1.20
2023-01-18T07:56:05.336Z,1.22
2023-01-18T07:58:31.727Z,1.23
2023-01-18T08:01:09.748Z,1.21
2023-01-18T08:03:36.780Z,1.26
2023-01-18T08:06:05.774Z,1.20
2023-01-18T08:08:32.284Z,1.19
2023-01-18T08:11:00.654Z,1.19
2023-01-18T08:13:28.181Z,1.20
2023-01-18T08:15:56.044Z,1.22
2023-01-18T08:18:23.575Z,1.19
2023-01-18T08:20:50.323Z,1.22
2023-01-18T08:23:17.519Z,1.20
2023-01-18T08:25:44.728Z,1.22
2023-01-18T08:28:11.785Z,1.20
2023-01-18T08:30:41.140Z,1.19
2023-01-18T08:33:07.963Z,1.19
2023-01-18T08:35:40.128Z,1.21
2023-01-18T08:38:06.498Z,1.17
2023-01-18T08:40:32.912Z,1.15
2023-01-18T08:43:01.518Z,1.17
2023-01-18T08:45:28.191Z,1.22
2023-01-18T08:47:58.505Z,1.39
2023-01-18T08:50:25.261Z,1.34
2023-01-18T08:52:52.608Z,1.28
2023-01-18T08:55:19.959Z,1.28
2023-01-18T08:57:46.385Z,1.27
2023-01-18T09:00:13.610Z,1.30
2023-01-18T09:02:40.128Z,1.32
2023-01-18T09:05:06.780Z,1.38
2023-01-18T09:07:33.496Z,1.44
2023-01-18T09:09:59.915Z,1.54
2023-01-18T09:12:26.376Z,1.58
2023-01-18T09:14:52.788Z,1.64
2023-01-18T09:17:21.146Z,1.73
2023-01-18T09:19:47.611Z,1.80
2023-01-18T09:22:14.019Z,1.93
2023-01-18T09:24:41.456Z,1.94
2023-01-18T09:27:07.902Z,1.97
2023-01-18T09:29:34.351Z,2.08
2023-01-18T09:32:00.736Z,2.20
2023-01-18T09:34:27.167Z,2.16
2023-01-18T09:36:53.522Z,2.21
2023-01-18T09:39:21.417Z,2.26
2023-01-18T09:41:54.346Z,2.17
2023-01-18T09:44:40.739Z,2.18
2023-01-18T09:47:17.877Z,2.11
2023-01-18T09:49:52.207Z,2.10
2023-01-18T09:52:35.528Z,2.15
2023-01-18T09:55:27.567Z,2.27
2023-01-18T09:58:12.910Z,2.20
2023-01-18T10:00:47.596Z,2.28
2023-01-18T10:03:33.041Z,2.34
2023-01-18T10:06:10.349Z,2.40
2023-01-18T10:08:49.221Z,2.44
2023-01-18T10:11:29.934Z,2.47
2023-01-18T10:14:05.231Z,2.60
2023-01-18T10:16:37.706Z,2.68
2023-01-18T10:19:15.372Z,2.76
2023-01-18T10:22:00.840Z,2.83
2023-01-18T10:24:40.878Z,2.89
2023-01-18T10:27:35.780Z,2.96
2023-01-18T10:30:20.223Z,3.12
2023-01-18T10:32:53.590Z,3.17
2023-01-18T10:35:41.446Z,3.19
2023-01-18T10:38:13.016Z,3.29
2023-01-18T10:40:40.434Z,3.33
2023-01-18T10:43:12.578Z,3.37
2023-01-18T10:45:39.053Z,3.40
2023-01-18T10:48:17.305Z,3.45
2023-01-18T10:50:53.515Z,3.51
2023-01-18T10:53:36.985Z,3.49
2023-01-18T10:56:03.350Z,3.44
2023-01-18T10:58:33.790Z,3.45
2023-01-18T11:01:02.057Z,3.49
2023-01-18T11:03:33.009Z,3.49
2023-01-18T11:06:06.901Z,3.50
2023-01-18T11:08:35.159Z,3.53
2023-01-18T11:11:12.159Z,3.57
2023-01-18T11:13:42.893Z,3.75
2023-01-18T11:16:13.485Z,3.62
2023-01-18T11:19:03.938Z,3.58
2023-01-18T11:21:42.428Z,3.49
2023-01-18T11:24:16.993Z,3.50
2023-01-18T11:26:56.623Z,3.72
2023-01-18T11:29:28.675Z,3.86
2023-01-18T11:32:00.849Z,3.88
2023-01-18T11:34:31.360Z,4.04
2023-01-18T11:37:00.563Z,4.02
2023-01-18T11:39:33.372Z,4.07
2023-01-18T11:42:31.520Z,4.10
2023-01-18T11:44:57.891Z,4.11
2023-01-18T11:47:35.952Z,4.13
2023-01-18T11:50:22.139Z,4.14
2023-01-18T11:52:56.937Z,4.16
2023-01-18T11:55:34.775Z,4.28
2023-01-18T11:58:01.574Z,4.32
2023-01-18T12:00:41.589Z,4.34
2023-01-18T12:03:21.569Z,4.34
2023-01-18T12:05:55.131Z,4.37
2023-01-18T12:08:45.723Z,4.33
2023-01-18T12:11:39.163Z,4.40
2023-01-18T12:14:39.718Z,4.27
2023-01-18T12:18:01.305Z,4.13
2023-01-18T12:20:46.335Z,4.04
2023-01-18T12:23:48.307Z,3.93
2023-01-18T12:26:46.642Z,3.81
2023-01-18T12:29:37.938Z,3.78
2023-01-18T12:32:23.118Z,3.79
2023-01-18T12:35:18.996Z,3.92
2023-01-18T12:38:25.193Z,4.03
2023-01-18T12:41:13.020Z,4.04
2023-01-18T12:43:44.659Z,4.10
2023-01-18T12:46:18.599Z,4.12
2023-01-18T12:49:11.710Z,4.09
2023-01-18T12:51:40.423Z,4.10
2023-01-18T12:54:19.604Z,4.11
2023-01-18T12:56:50.420Z,3.97
2023-01-18T12:59:24.502Z,4.00
2023-01-18T13:02:17.549Z,4.05
2023-01-18T13:04:49.830Z,4.12
2023-01-18T13:07:22.396Z,4.17
2023-01-18T13:09:50.469Z,4.15
2023-01-18T13:12:17.386Z,4.18
2023-01-18T13:14:51.264Z,4.16
2023-01-18T13:17:33.092Z,4.20
2023-01-18T13:20:12.217Z,4.26
2023-01-18T13:23:19.545Z,4.30
2023-01-18T13:25:56.887Z,4.38
2023-01-18T13:28:26.908Z,4.40
2023-01-18T13:31:03.060Z,4.30
2023-01-18T13:33:33.387Z,4.33
2023-01-18T13:36:14.123Z,4.33
2023-01-18T13:38:52.598Z,4.24
2023-01-18T13:41:30.328Z,4.18
2023-01-18T13:44:06.913Z,4.14
2023-01-18T13:46:38.720Z,4.22
2023-01-18T13:49:38.224Z,4.28
2023-01-18T13:52:35.564Z,4.27
2023-01-18T13:55:05.552Z,4.27
2023-01-18T13:57:34.005Z,4.24
2023-01-18T14:00:02.418Z,4.21
2023-01-18T14:02:42.134Z,4.29
2023-01-18T14:05:19.975Z,4.28
2023-01-18T14:07:51.799Z,4.29
2023-01-18T14:10:33.006Z,4.21
2023-01-18T14:13:02.947Z,4.18
2023-01-18T14:15:31.251Z,4.21
2023-01-18T14:17:59.208Z,4.21
2023-01-18T14:20:51.810Z,4.18
2023-01-18T14:23:39.577Z,4.17
2023-01-18T14:26:12.671Z,4.14
2023-01-18T14:28:52.377Z,4.04
2023-01-18T14:31:23.082Z,4.05
2023-01-18T14:33:49.927Z,3.97
2023-01-18T14:36:25.023Z,4.04
2023-01-18T14:39:21.577Z,4.02
2023-01-18T14:41:58.736Z,4.04
2023-01-18T14:44:57.423Z,3.97
2023-01-18T14:47:30.354Z,3.96
2023-01-18T14:49:57.379Z,3.99
2023-01-18T14:52:30.551Z,4.03
2023-01-18T14:54:57.099Z,4.04
2023-01-18T14:57:24.165Z,4.05
2023-01-18T15:00:14.651Z,4.07
2023-01-18T15:02:41.201Z,4.05
2023-01-18T15:05:24.515Z,4.03
2023-01-18T15:07:55.705Z,4.07
2023-01-18T15:10:24.158Z,4.09
2023-01-18T15:12:55.297Z,4.12
2023-01-18T15:15:30.259Z,4.11
2023-01-18T15:18:07.802Z,4.10
2023-01-18T15:20:34.392Z,4.06
2023-01-18T15:23:01.385Z,4.06
2023-01-18T15:25:31.887Z,4.07
2023-01-18T15:28:08.928Z,4.08
2023-01-18T15:30:49.912Z,3.99
2023-01-18T15:33:16.787Z,3.96
2023-01-18T15:35:43.247Z,3.95
2023-01-18T15:38:11.455Z,4.09
2023-01-18T15:40:43.838Z,5.35
2023-01-18T15:43:34.372Z,5.80
2023-01-18T15:46:01.391Z,5.54
2023-01-18T15:48:33.298Z,5.16
2023-01-18T15:51:07.612Z,5.34
2023-01-18T15:53:51.929Z,5.09
2023-01-18T15:56:23.760Z,4.83
2023-01-18T15:58:56.007Z,4.69
2023-01-18T16:01:29.222Z,4.51
2023-01-18T16:03:58.994Z,4.35
2023-01-18T16:06:28.695Z,4.28
2023-01-18T16:09:12.125Z,4.29
2023-01-18T16:11:46.437Z,4.28
2023-01-18T16:14:28.157Z,4.26
2023-01-18T16:16:56.944Z,4.32
2023-01-18T16:19:30.706Z,4.34
2023-01-18T16:22:18.506Z,4.27
2023-01-18T16:24:55.629Z,4.22
2023-01-18T16:27:24.810Z,4.22
2023-01-18T16:29:54.014Z,4.22
2023-01-18T16:32:29.317Z,4.20
2023-01-18T16:35:00.283Z,4.17
2023-01-18T16:37:27.063Z,4.21
2023-01-18T16:39:55.341Z,4.17
2023-01-18T16:42:29.599Z,4.15
2023-01-18T16:45:04.231Z,4.20
2023-01-18T16:47:30.651Z,4.24
2023-01-18T16:49:59.182Z,4.26
2023-01-18T16:52:25.772Z,4.26
2023-01-18T16:54:52.363Z,4.22
2023-01-18T16:57:23.479Z,4.24
2023-01-18T16:59:50.664Z,4.24
2023-01-18T17:02:17.112Z,4.26
2023-01-18T17:04:45.274Z,4.23
2023-01-18T17:07:12.579Z,4.25
2023-01-18T17:09:47.824Z,4.24
2023-01-18T17:12:15.377Z,4.25
2023-01-18T17:14:41.761Z,4.26
2023-01-18T17:17:09.573Z,4.29
2023-01-18T17:19:37.660Z,4.19
2023-01-18T17:22:04.338Z,4.20
2023-01-18T17:24:30.835Z,4.22
2023-01-18T17:26:57.475Z,4.25
2023-01-18T17:29:24.057Z,4.29
2023-01-18T17:31:52.859Z,4.33
2023-01-18T17:34:27.394Z,4.34
2023-01-18T17:36:57.328Z,4.38
2023-01-18T17:39:31.823Z,4.31
2023-01-18T17:42:12.231Z,4.32
2023-01-18T17:44:40.961Z,4.40
2023-01-18T17:47:07.699Z,4.42
2023-01-18T17:49:34.241Z,4.38
2023-01-18T17:52:00.693Z,4.34
2023-01-18T17:54:28.447Z,4.35
2023-01-18T17:56:54.925Z,4.33
2023-01-18T17:59:21.385Z,4.28
2023-01-18T18:01:47.881Z,4.27
2023-01-18T18:04:14.339Z,4.38
2023-01-18T18:06:49.737Z,4.37
2023-01-18T18:09:20.357Z,4.40
2023-01-18T18:11:46.846Z,4.40
2023-01-18T18:14:13.210Z,4.44
2023-01-18T18:16:43.574Z,4.43
2023-01-18T18:19:14.382Z,4.45
2023-01-18T18:21:42.057Z,4.43
2023-01-18T18:24:08.500Z,4.46
2023-01-18T18:26:34.882Z,4.49
2023-01-18T18:29:01.296Z,4.52
2023-01-18T18:31:27.802Z,4.56
2023-01-18T18:33:54.293Z,4.51
2023-01-18T18:36:22.103Z,4.57
2023-01-18T18:38:48.468Z,4.56
2023-01-18T18:41:14.822Z,4.58
2023-01-18T18:43:41.233Z,4.56
2023-01-18T18:46:08.672Z,4.60
2023-01-18T18:48:35.246Z,4.64
2023-01-18T18:51:01.709Z,4.68
2023-01-18T18:53:37.496Z,4.68
2023-01-18T18:56:10.228Z,4.66
2023-01-18T18:58:37.747Z,4.69
2023-01-18T19:01:05.467Z,4.68
2023-01-18T19:03:32.707Z,4.68
2023-01-18T19:05:59.100Z,4.67
2023-01-18T19:08:25.585Z,4.53
2023-01-18T19:10:51.981Z,4.53
2023-01-18T19:13:19.171Z,4.49
2023-01-18T19:15:46.888Z,4.48
2023-01-18T19:18:13.973Z,4.45
2023-01-18T19:20:40.487Z,4.39
2023-01-18T19:23:07.174Z,4.32
2023-01-18T19:25:33.602Z,4.29
2023-01-18T19:28:00.152Z,4.30
2023-01-18T19:30:26.935Z,4.24
2023-01-18T19:32:53.408Z,4.19
2023-01-18T19:35:20.990Z,4.22
2023-01-18T19:37:48.036Z,4.26
2023-01-18T19:40:15.702Z,4.30
2023-01-18T19:42:44.293Z,4.29
2023-01-18T19:45:13.925Z,4.24
2023-01-18T19:47:46.725Z,4.20
2023-01-18T19:50:13.090Z,4.18
2023-01-18T19:52:39.517Z,4.20
2023-01-18T19:55:06.386Z,4.21
2023-01-18T19:57:32.865Z,4.21
2023-01-18T19:59:59.279Z,4.30
2023-01-18T20:02:26.015Z,4.36
2023-01-18T20:04:52.883Z,4.29
2023-01-18T20:07:19.915Z,4.19
2023-01-18T20:09:46.346Z,4.26
2023-01-18T20:12:13.304Z,4.20
2023-01-18T20:14:44.737Z,4.21
2023-01-18T20:17:14.341Z,4.19
2023-01-18T20:19:41.448Z,4.20
2023-01-18T20:22:08.906Z,4.17
2023-01-18T20:24:35.347Z,4.14
2023-01-18T20:27:14.986Z,4.04
2023-01-18T20:29:42.546Z,3.91
2023-01-18T20:32:16.024Z,3.80
2023-01-18T20:34:47.467Z,3.84
2023-01-18T20:37:15.096Z,3.81
2023-01-18T20:39:41.835Z,3.84
2023-01-18T20:42:08.380Z,3.86
2023-01-18T20:44:35.607Z,3.82
2023-01-18T20:47:02.431Z,3.88
2023-01-18T20:49:43.987Z,3.87
2023-01-18T20:52:10.763Z,3.87
2023-01-18T20:54:37.686Z,3.95
2023-01-18T20:57:07.333Z,3.92
2023-01-18T20:59:33.879Z,3.88
2023-01-18T21:02:00.720Z,3.82
2023-01-18T21:04:27.243Z,3.83
2023-01-18T21:06:54.239Z,3.86
2023-01-18T21:09:20.676Z,3.84
2023-01-18T21:11:47.139Z,3.89
2023-01-18T21:14:13.577Z,3.88
2023-01-18T21:16:40.281Z,3.93
2023-01-18T21:19:06.757Z,3.93
2023-01-18T21:21:33.326Z,3.95
2023-01-18T21:24:00.082Z,3.89
2023-01-18T21:26:26.568Z,3.95
2023-01-18T21:28:53.472Z,4.06
2023-01-18T21:31:20.413Z,4.06
2023-01-18T21:33:47.416Z,4.00
2023-01-18T21:36:20.067Z,3.95
2023-01-18T21:38:46.588Z,3.90
2023-01-18T21:41:31.649Z,3.88
2023-01-18T21:44:16.562Z,3.86
2023-01-18T21:46:47.360Z,3.85
2023-01-18T21:49:47.455Z,3.76
2023-01-18T21:52:38.607Z,3.57
2023-01-18T21:55:05.359Z,3.49
2023-01-18T21:57:31.815Z,3.41
2023-01-18T21:59:58.261Z,3.29
2023-01-18T22:02:24.800Z,3.28
2023-01-18T22:05:00.143Z,3.29
2023-01-18T22:07:28.182Z,3.32
2023-01-18T22:10:04.049Z,3.35
2023-01-18T22:12:33.259Z,3.41
2023-01-18T22:15:01.801Z,3.49
2023-01-18T22:17:28.360Z,3.53
2023-01-18T22:19:54.712Z,3.59
2023-01-18T22:22:21.163Z,3.60
2023-01-18T22:24:47.650Z,3.60
2023-01-18T22:27:14.038Z,3.56
2023-01-18T22:29:40.459Z,3.55
2023-01-18T22:32:06.908Z,3.41
2023-01-18T22:34:33.311Z,3.25
2023-01-18T22:36:59.717Z,3.26
2023-01-18T22:39:26.175Z,3.35
2023-01-18T22:41:52.536Z,3.36
2023-01-18T22:44:19.055Z,3.42
2023-01-18T22:46:45.550Z,3.44
2023-01-18T22:49:11.993Z,3.43
2023-01-18T22:51:38.860Z,3.55
2023-01-18T22:54:05.350Z,3.58
2023-01-18T22:56:31.895Z,3.53
2023-01-18T22:58:59.998Z,3.53
2023-01-18T23:01:30.814Z,3.68
2023-01-18T23:03:59.542Z,3.71
2023-01-18T23:06:28.084Z,3.68
2023-01-18T23:08:56.358Z,3.71
2023-01-18T23:11:29.278Z,3.72
2023-01-18T23:14:16.529Z,3.74
2023-01-18T23:17:02.438Z,3.75
2023-01-18T23:19:30.986Z,3.75
2023-01-18T23:21:57.617Z,3.74
2023-01-18T23:24:24.017Z,3.74
2023-01-18T23:26:51.339Z,3.76
2023-01-18T23:29:18.612Z,3.77
2023-01-18T23:31:44.975Z,3.80
2023-01-18T23:34:11.386Z,3.76
2023-01-18T23:36:38.773Z,3.82
2023-01-18T23:39:23.642Z,3.83
2023-01-18T23:42:08.351Z,3.84
2023-01-18T23:44:53.109Z,3.88
2023-01-18T23:47:37.805Z,3.88
2023-01-18T23:50:23.089Z,3.91
2023-01-18T23:53:07.919Z,3.87
2023-01-18T23:55:34.372Z,3.86
2023-01-18T23:58:01.171Z,3.86
